Time;durP1;ratioP1;P1;durP2;ratioP2;P2;SDS_P1;SDS_P2;PMS_P1;PMS_P2;Temp;Humidity;BMP_temperature;BMP_pressure;BME280_temperature;BME280_humidity;BME280_pressure;Samples;Min_cycle;Max_cycle;Signal;HPM_P1;HPM_P2
2024/02/22 00:01:22;;;;;;;2.53;0.93;;;;;;;12.49;70.34;95558.81;5034923;28;20714;-66
2024/02/22 00:03:48;;;;;;;1.13;1.00;;;;;;;12.61;69.49;95543.94;5035346;28;20208;-67
2024/02/22 00:06:16;;;;;;;2.37;1.00;;;;;;;12.73;70.55;95557.34;5036212;28;20213;-67
2024/02/22 00:08:43;;;;;;;1.07;0.73;;;;;;;12.59;69.25;95561.88;5035248;28;20202;-66
2024/02/22 00:11:09;;;;;;;1.07;0.80;;;;;;;12.60;68.89;95557.38;5035366;28;20216;-66
2024/02/22 00:13:36;;;;;;;1.70;0.60;;;;;;;12.60;69.13;95560.84;5034361;28;20251;-66
2024/02/22 00:16:05;;;;;;;1.80;1.00;;;;;;;12.56;69.20;95546.41;5035699;28;20296;-67
2024/02/22 00:18:32;;;;;;;0.90;0.70;;;;;;;12.65;69.12;95550.44;5034819;28;20216;-67
2024/02/22 00:20:59;;;;;;;2.83;1.53;;;;;;;12.58;69.11;95536.44;5036020;28;20639;-66
2024/02/22 00:23:27;;;;;;;7.10;0.90;;;;;;;12.81;69.77;95499.78;5034665;28;20221;-66
2024/02/22 00:25:53;;;;;;;0.90;0.70;;;;;;;12.64;69.65;95533.00;5036080;28;20230;-66
2024/02/22 00:28:20;;;;;;;2.00;1.20;;;;;;;12.57;69.81;95505.75;5035018;28;20208;-67
2024/02/22 00:30:46;;;;;;;2.37;1.00;;;;;;;12.55;70.05;95513.09;5035927;28;20209;-66
2024/02/22 00:33:13;;;;;;;5.33;1.67;;;;;;;12.71;68.50;95511.81;5034377;28;20232;-67
2024/02/22 00:35:39;;;;;;;1.87;1.03;;;;;;;12.79;67.91;95499.19;5034588;28;20227;-67
2024/02/22 00:38:06;;;;;;;0.77;0.60;;;;;;;12.96;67.42;95476.59;5035811;28;20201;-67
2024/02/22 00:40:34;;;;;;;1.73;0.90;;;;;;;13.15;67.86;95473.03;5035049;28;20637;-67
2024/02/22 00:43:01;;;;;;;1.40;0.70;;;;;;;12.73;67.79;95465.66;5034086;28;20286;-67
2024/02/22 00:45:28;;;;;;;2.30;1.10;;;;;;;12.78;67.65;95464.00;5034682;28;20478;-68
2024/02/22 00:47:58;;;;;;;0.80;0.63;;;;;;;12.88;68.89;95456.47;5034689;28;20778;-67
2024/02/22 00:50:26;;;;;;;0.90;0.80;;;;;;;12.79;68.27;95459.53;5035073;28;20213;-67
2024/02/22 00:52:52;;;;;;;2.17;0.90;;;;;;;12.91;68.06;95449.97;5034750;28;20221;-67
2024/02/22 00:55:19;;;;;;;2.77;1.07;;;;;;;12.79;67.60;95441.84;5034466;28;20201;-67
2024/02/22 00:57:47;;;;;;;0.83;0.67;;;;;;;12.98;67.92;95445.44;5035103;28;20205;-68
2024/02/22 01:00:14;;;;;;;1.43;0.83;;;;;;;12.79;67.66;95444.47;5039300;28;20201;-67
2024/02/22 01:02:41;;;;;;;1.40;0.90;;;;;;;12.64;66.98;95439.66;5038262;28;20313;-67
2024/02/22 01:05:08;;;;;;;5.47;1.40;;;;;;;12.85;66.93;95426.97;5038624;28;20213;-67
2024/02/22 01:07:35;;;;;;;1.50;0.97;;;;;;;12.74;67.15;95417.06;5039088;28;20471;-67
2024/02/22 01:10:03;;;;;;;2.63;1.00;;;;;;;12.91;66.96;95397.88;5039124;28;20201;-67
2024/02/22 01:12:30;;;;;;;1.43;1.07;;;;;;;12.81;66.50;95394.84;5038002;28;20869;-68
2024/02/22 01:14:58;;;;;;;1.17;0.80;;;;;;;13.15;66.39;95398.97;5038764;28;20197;-67
2024/02/22 01:17:24;;;;;;;1.10;0.90;;;;;;;12.81;66.71;95383.47;5039337;28;20793;-67
2024/02/22 01:19:51;;;;;;;1.60;0.90;;;;;;;12.81;67.14;95388.75;5038680;28;20686;-67
2024/02/22 01:22:17;;;;;;;1.80;1.03;;;;;;;12.98;66.57;95366.94;5038106;28;20228;-67
2024/02/22 01:24:44;;;;;;;1.43;0.90;;;;;;;12.89;66.99;95370.84;5038569;28;20375;-67
2024/02/22 01:27:10;;;;;;;2.17;1.00;;;;;;;12.92;66.43;95361.69;5039051;28;20479;-67
2024/02/22 01:29:37;;;;;;;2.00;0.93;;;;;;;12.90;67.30;95353.16;5038298;28;20206;-67
2024/02/22 01:32:05;;;;;;;1.50;0.97;;;;;;;13.05;66.91;95345.75;5037804;28;20916;-67
2024/02/22 01:34:32;;;;;;;1.00;0.90;;;;;;;12.88;66.84;95344.59;5038516;28;20210;-67
2024/02/22 01:36:58;;;;;;;2.53;1.10;;;;;;;12.68;67.00;95341.25;5038272;28;20197;-66
2024/02/22 01:39:24;;;;;;;1.17;0.90;;;;;;;12.75;66.47;95338.56;5038003;28;20578;-67
2024/02/22 01:41:51;;;;;;;1.83;0.87;;;;;;;12.88;66.26;95336.66;5038362;28;20497;-67
2024/02/22 01:44:18;;;;;;;2.47;1.30;;;;;;;13.33;65.27;95327.59;5038772;28;20204;-67
2024/02/22 01:46:44;;;;;;;1.30;0.80;;;;;;;13.32;65.08;95328.66;5037425;28;20217;-67
2024/02/22 01:49:12;;;;;;;1.77;1.17;;;;;;;13.34;65.40;95329.22;5038279;28;20213;-67
2024/02/22 01:51:39;;;;;;;2.87;0.93;;;;;;;13.33;65.27;95333.72;5036480;28;20687;-67
2024/02/22 01:54:06;;;;;;;1.87;1.07;;;;;;;13.18;65.67;95335.06;5037030;28;20240;-67
2024/02/22 01:56:32;;;;;;;1.67;1.17;;;;;;;13.31;65.68;95342.91;5036352;28;20393;-67
2024/02/22 01:59:00;;;;;;;1.40;0.93;;;;;;;13.13;66.79;95343.63;5037474;28;20207;-68
2024/02/22 02:01:26;;;;;;;2.40;1.30;;;;;;;13.07;66.04;95335.75;5035394;28;20205;-67
2024/02/22 02:03:56;;;;;;;0.97;0.90;;;;;;;13.47;66.24;95329.97;5036931;28;20220;-69
2024/02/22 02:06:23;;;;;;;3.33;1.27;;;;;;;13.37;67.93;95328.81;5036175;28;20205;-66
2024/02/22 02:08:51;;;;;;;2.13;1.13;;;;;;;13.31;67.68;95317.25;5036127;28;20204;-66
2024/02/22 02:11:17;;;;;;;2.43;1.27;;;;;;;13.20;69.65;95302.09;5036854;28;20395;-66
2024/02/22 02:13:44;;;;;;;1.67;0.90;;;;;;;12.85;69.06;95300.06;5036976;28;20613;-67
2024/02/22 02:16:10;;;;;;;1.63;1.10;;;;;;;12.53;70.12;95298.41;5036562;28;20692;-67
2024/02/22 02:18:37;;;;;;;0.87;0.83;;;;;;;12.77;69.74;95292.38;5036262;28;20211;-67
2024/02/22 02:21:10;;;;;;;1.33;1.00;;;;;;;12.90;69.58;95287.03;5036870;28;20201;-67
2024/02/22 02:23:51;;;;;;;2.33;1.23;;;;;;;13.31;68.84;95282.06;5035717;28;20205;-67
2024/02/22 02:26:20;;;;;;;2.43;1.03;;;;;;;13.20;68.20;95270.34;5036888;28;20580;-67
2024/02/22 02:28:46;;;;;;;3.50;1.20;;;;;;;12.93;68.38;95271.56;5036020;28;20687;-67
2024/02/22 02:31:12;;;;;;;1.47;0.93;;;;;;;13.07;68.15;95264.34;5036185;28;20201;-67
2024/02/22 02:33:39;;;;;;;2.13;1.30;;;;;;;13.05;68.01;95261.13;5035770;28;20229;-67
2024/02/22 02:36:06;;;;;;;1.50;0.97;;;;;;;13.14;68.50;95260.63;5035836;28;20812;-67
2024/02/22 02:38:33;;;;;;;2.00;1.00;;;;;;;12.91;68.67;95249.00;5036154;28;20652;-68
2024/02/22 02:40:59;;;;;;;1.23;0.83;;;;;;;13.01;68.37;95244.84;5036777;28;20219;-67
2024/02/22 02:43:27;;;;;;;1.87;0.80;;;;;;;13.41;68.04;95246.94;5035046;28;20224;-67
2024/02/22 02:45:54;;;;;;;1.17;0.67;;;;;;;13.24;67.86;95244.25;5035637;28;20802;-67
2024/02/22 02:48:20;;;;;;;1.93;1.00;;;;;;;13.06;69.17;95239.72;5035054;28;20201;-67
2024/02/22 02:50:47;;;;;;;1.97;1.20;;;;;;;13.03;69.22;95242.78;4999312;28;1068522;-67
2024/02/22 02:53:14;;;;;;;2.03;1.17;;;;;;;12.99;69.55;95246.09;5036022;28;20233;-67
2024/02/22 02:55:40;;;;;;;2.17;1.40;;;;;;;12.96;69.82;95246.53;5037296;28;20205;-67
2024/02/22 02:58:08;;;;;;;2.57;1.17;;;;;;;12.91;70.35;95241.06;5036419;28;20205;-67
2024/02/22 03:00:36;;;;;;;1.23;1.00;;;;;;;13.01;70.36;95244.84;5036713;28;20255;-67
2024/02/22 03:03:02;;;;;;;1.90;1.10;;;;;;;12.90;70.43;95237.59;5036134;28;20213;-67
2024/02/22 03:05:29;;;;;;;1.83;1.17;;;;;;;12.98;70.37;95240.00;5036428;28;20303;-67
2024/02/22 03:07:55;;;;;;;1.20;1.10;;;;;;;12.94;70.88;95243.28;5036845;28;20197;-67
2024/02/22 03:10:23;;;;;;;1.70;1.10;;;;;;;12.98;71.67;95233.88;5036580;28;20956;-67
2024/02/22 03:12:51;;;;;;;1.83;0.90;;;;;;;12.89;71.89;95232.53;5036306;28;20258;-67
2024/02/22 03:15:17;;;;;;;1.43;0.93;;;;;;;12.53;75.41;95232.34;5036128;28;20708;-67
2024/02/22 03:17:45;;;;;;;3.37;1.23;;;;;;;12.83;77.76;95228.91;5036121;28;20676;-67
2024/02/22 03:20:12;;;;;;;1.90;0.90;;;;;;;12.39;78.99;95220.25;5036178;28;20216;-67
2024/02/22 03:22:39;;;;;;;1.20;0.83;;;;;;;12.59;80.56;95209.53;5035090;28;20244;-67
2024/02/22 03:25:07;;;;;;;1.70;1.10;;;;;;;12.50;83.46;95201.09;5036782;28;20201;-67
2024/02/22 03:27:33;;;;;;;2.33;1.00;;;;;;;12.33;81.72;95197.34;5036680;28;20205;-67
2024/02/22 03:30:00;;;;;;;1.10;1.00;;;;;;;12.25;82.01;95192.28;5036204;28;20579;-67
2024/02/22 03:32:27;;;;;;;4.43;1.60;;;;;;;12.35;82.25;95190.00;5035639;28;20754;-67
2024/02/22 03:34:54;;;;;;;2.30;1.23;;;;;;;12.54;79.78;95178.50;5036328;28;20208;-67
2024/02/22 03:37:21;;;;;;;1.33;1.00;;;;;;;12.32;79.81;95185.16;5035401;28;20830;-67
2024/02/22 03:39:49;;;;;;;2.77;1.03;;;;;;;12.42;78.53;95179.38;5033468;28;20201;-67
2024/02/22 03:42:16;;;;;;;2.23;1.53;;;;;;;12.55;77.75;95174.84;5036260;28;20221;-67
2024/02/22 03:44:42;;;;;;;2.20;1.20;;;;;;;12.54;77.39;95177.69;5036189;28;20205;-67
2024/02/22 03:47:09;;;;;;;3.07;1.30;;;;;;;12.76;76.55;95171.81;5035716;28;20201;-66
2024/02/22 03:49:35;;;;;;;1.10;1.00;;;;;;;12.61;75.16;95173.94;5035272;28;20621;-67
2024/02/22 03:52:04;;;;;;;1.23;1.00;;;;;;;12.85;75.45;95165.22;5035467;28;20235;-67
2024/02/22 03:54:31;;;;;;;2.80;1.20;;;;;;;12.63;75.42;95160.53;5034734;28;20229;-67
2024/02/22 03:56:57;;;;;;;2.53;1.10;;;;;;;12.53;75.85;95166.28;5036223;28;20206;-66
2024/02/22 03:59:24;;;;;;;3.33;1.13;;;;;;;12.32;77.82;95163.19;5036448;28;20227;-67
2024/02/22 04:01:52;;;;;;;0.67;0.67;;;;;;;12.34;80.28;95177.00;5034787;28;20229;-67
2024/02/22 04:04:19;;;;;;;1.90;1.20;;;;;;;12.39;83.00;95177.19;5035145;28;20212;-67
2024/02/22 04:06:45;;;;;;;3.57;0.90;;;;;;;12.26;86.82;95164.84;5034968;28;20288;-67
2024/02/22 04:09:15;;;;;;;1.47;0.97;;;;;;;12.73;88.73;95166.13;5036591;28;20212;-68
2024/02/22 04:11:41;;;;;;;3.47;1.30;;;;;;;12.31;92.52;95162.38;5034527;28;20286;-67
2024/02/22 04:14:09;;;;;;;3.77;1.50;;;;;;;12.34;95.84;95174.34;5035211;28;20658;-68
2024/02/22 04:16:35;;;;;;;2.30;1.13;;;;;;;12.26;99.30;95164.84;5035084;28;20209;-68
2024/02/22 04:19:02;;;;;;;1.70;0.90;;;;;;;12.03;100.00;95168.22;5035982;28;20209;-67
2024/02/22 04:21:28;;;;;;;2.67;1.13;;;;;;;12.01;100.00;95168.44;5033709;28;20227;-68
2024/02/22 04:23:55;;;;;;;2.07;1.10;;;;;;;11.99;100.00;95162.59;5036019;28;20663;-69
2024/02/22 04:26:23;;;;;;;1.17;1.00;;;;;;;11.93;100.00;95152.06;5035155;28;20586;-67
2024/02/22 04:28:49;;;;;;;2.30;1.13;;;;;;;11.82;100.00;95156.16;5035872;28;20224;-68
2024/02/22 04:31:16;;;;;;;1.70;0.90;;;;;;;11.57;100.00;95157.91;5035266;28;20829;-68
2024/02/22 04:33:42;;;;;;;0.97;0.80;;;;;;;11.39;100.00;95154.28;5034091;28;20711;-68
2024/02/22 04:36:09;;;;;;;3.27;1.00;;;;;;;11.68;100.00;95148.53;5034504;28;20211;-68
2024/02/22 04:38:35;;;;;;;1.90;1.00;;;;;;;11.58;100.00;95143.69;5035550;28;20209;-68
2024/02/22 04:41:03;;;;;;;1.47;1.10;;;;;;;11.30;100.00;95137.09;5035360;28;20212;-67
2024/02/22 04:43:30;;;;;;;1.57;1.20;;;;;;;11.73;100.00;95141.59;5034573;28;20247;-68
2024/02/22 04:45:57;;;;;;;1.90;1.10;;;;;;;11.47;100.00;95140.88;5035429;28;20201;-68
2024/02/22 04:48:23;;;;;;;4.40;1.37;;;;;;;11.50;100.00;95137.03;5034600;28;20656;-67
2024/02/22 04:50:50;;;;;;;1.23;0.77;;;;;;;11.04;100.00;95145.03;5034255;28;20387;-67
2024/02/22 04:53:16;;;;;;;2.37;1.07;;;;;;;11.33;100.00;95134.03;5034455;28;20722;-67
2024/02/22 04:55:43;;;;;;;2.07;1.50;;;;;;;11.09;100.00;95131.25;5035017;28;20212;-66
2024/02/22 04:58:09;;;;;;;1.70;1.00;;;;;;;11.27;100.00;95136.69;5034792;28;20675;-66
2024/02/22 05:00:38;;;;;;;3.40;1.30;;;;;;;11.20;100.00;95138.50;5033737;28;20197;-66
2024/02/22 05:03:05;;;;;;;1.80;1.10;;;;;;;10.95;100.00;95129.66;5032835;28;20695;-67
2024/02/22 05:05:31;;;;;;;2.53;1.20;;;;;;;11.11;100.00;95135.31;5032662;28;20208;-67
2024/02/22 05:07:58;;;;;;;5.60;1.17;;;;;;;10.78;100.00;95122.38;5035095;28;20209;-66
2024/02/22 05:10:24;;;;;;;2.00;1.20;;;;;;;11.05;100.00;95125.56;5034096;28;20197;-67
2024/02/22 05:12:51;;;;;;;2.53;1.20;;;;;;;10.73;100.00;95127.44;5033924;28;20766;-68
2024/02/22 05:15:18;;;;;;;1.83;1.10;;;;;;;10.66;100.00;95116.13;5034912;28;20228;-67
2024/02/22 05:17:47;;;;;;;2.33;1.00;;;;;;;11.06;100.00;95105.28;5034502;28;20231;-67
2024/02/22 05:20:14;;;;;;;1.47;1.13;;;;;;;10.66;100.00;95100.31;5035615;28;20297;-66
2024/02/22 05:22:41;;;;;;;3.57;1.10;;;;;;;10.68;100.00;95101.72;5032939;28;20225;-66
2024/02/22 05:25:09;;;;;;;2.00;1.40;;;;;;;10.82;100.00;95091.97;5035433;28;20591;-67
2024/02/22 05:27:35;;;;;;;1.93;1.17;;;;;;;10.55;100.00;95100.91;5034280;28;20197;-66
2024/02/22 05:30:03;;;;;;;3.80;1.60;;;;;;;10.57;100.00;95091.81;5034978;28;20209;-67
2024/02/22 05:32:30;;;;;;;3.23;1.37;;;;;;;10.63;100.00;95091.00;5033761;28;20221;-67
2024/02/22 05:34:58;;;;;;;2.87;1.17;;;;;;;10.79;100.00;95079.22;5035089;28;20228;-68
2024/02/22 05:37:24;;;;;;;8.03;1.97;;;;;;;10.76;100.00;95079.63;5034258;28;20201;-67
2024/02/22 05:39:51;;;;;;;7.40;1.60;;;;;;;10.58;100.00;95080.25;5034377;28;20472;-67
2024/02/22 05:42:17;;;;;;;2.37;1.73;;;;;;;10.59;100.00;95070.53;5034251;28;20225;-67
2024/02/22 05:44:44;;;;;;;6.80;2.07;;;;;;;10.50;100.00;95077.00;5035746;28;20201;-67
2024/02/22 05:47:13;;;;;;;2.77;1.50;;;;;;;10.54;100.00;95079.06;5038118;28;20246;-67
2024/02/22 05:49:40;;;;;;;4.67;1.93;;;;;;;10.61;100.00;95092.22;5038268;28;20213;-67
2024/02/22 05:52:08;;;;;;;2.47;1.20;;;;;;;10.62;100.00;95085.94;5037934;28;20254;-67
2024/02/22 05:54:35;;;;;;;3.70;1.20;;;;;;;10.44;100.00;95088.38;5037867;28;20809;-68
2024/02/22 05:57:02;;;;;;;2.23;1.00;;;;;;;10.42;100.00;95066.69;5038556;28;20296;-66
2024/02/22 05:59:29;;;;;;;1.57;0.90;;;;;;;10.45;100.00;95071.53;5038398;28;20201;-67
2024/02/22 06:01:55;;;;;;;1.93;1.20;;;;;;;10.49;100.00;95056.97;5037240;28;20232;-69
2024/02/22 06:04:22;;;;;;;1.90;1.10;;;;;;;10.43;100.00;95066.50;5037943;28;20205;-67
2024/02/22 06:06:48;;;;;;;2.13;0.97;;;;;;;10.61;100.00;95053.50;5038150;28;20660;-69
2024/02/22 06:09:17;;;;;;;1.57;1.20;;;;;;;10.75;100.00;95047.19;5038106;28;20205;-68
2024/02/22 06:11:45;;;;;;;1.57;1.07;;;;;;;10.30;100.00;95046.44;5036916;28;20714;-68
2024/02/22 06:14:11;;;;;;;2.17;1.30;;;;;;;10.33;100.00;95044.22;5038498;28;20225;-68
2024/02/22 06:16:38;;;;;;;2.03;1.30;;;;;;;10.30;100.00;95042.00;5038143;28;21032;-68
2024/02/22 06:19:05;;;;;;;4.47;1.60;;;;;;;10.39;100.00;95044.22;5038191;28;20205;-69
2024/02/22 06:21:32;;;;;;;2.40;1.27;;;;;;;10.29;100.00;95048.28;5037481;28;20221;-68
2024/02/22 06:23:58;;;;;;;3.60;1.10;;;;;;;10.42;100.00;95043.00;5037276;28;20235;-68
2024/02/22 06:26:32;;;;;;;3.47;1.40;;;;;;;10.74;100.00;95027.13;5037501;28;20205;-67
2024/02/22 06:28:58;;;;;;;3.60;1.33;;;;;;;10.26;100.00;95024.19;5037582;28;21121;-67
2024/02/22 06:31:25;;;;;;;1.73;0.80;;;;;;;10.21;100.00;95027.44;5037848;28;21085;-67
2024/02/22 06:33:52;;;;;;;2.23;1.30;;;;;;;10.32;100.00;95032.06;5037391;28;20624;-68
2024/02/22 06:36:19;;;;;;;4.80;1.17;;;;;;;10.16;100.00;95034.34;5037395;28;20796;-66
2024/02/22 06:38:46;;;;;;;1.27;1.10;;;;;;;10.33;100.00;95033.69;5037587;28;20205;-69
2024/02/22 06:41:14;;;;;;;2.07;1.63;;;;;;;10.40;100.00;95034.50;5038268;28;20208;-68
2024/02/22 06:43:42;;;;;;;2.83;1.00;;;;;;;10.50;100.00;95029.59;5037205;28;20228;-68
2024/02/22 06:46:08;;;;;;;1.73;1.17;;;;;;;10.18;100.00;95027.81;5037864;28;20583;-68
2024/02/22 06:48:35;;;;;;;2.10;1.20;;;;;;;10.36;100.00;95028.84;5037820;28;20205;-66
2024/02/22 06:51:01;;;;;;;2.53;1.20;;;;;;;10.26;100.00;95029.44;5037344;28;20209;-68
2024/02/22 06:53:28;;;;;;;3.13;1.43;;;;;;;10.32;100.00;95022.38;5036997;28;20229;-69
2024/02/22 06:55:55;;;;;;;1.00;0.80;;;;;;;10.22;100.00;95022.97;5035846;28;20205;-68
2024/02/22 06:58:21;;;;;;;2.00;1.17;;;;;;;10.24;100.00;95018.31;5037851;28;20205;-68
2024/02/22 07:00:49;;;;;;;3.33;1.30;;;;;;;10.46;100.00;95020.50;5037375;28;20205;-69
2024/02/22 07:03:16;;;;;;;2.50;1.17;;;;;;;10.25;100.00;95028.66;5037253;28;20236;-67
2024/02/22 07:05:43;;;;;;;1.60;0.90;;;;;;;10.23;100.00;95020.13;5036848;28;20215;-68
2024/02/22 07:08:09;;;;;;;6.33;1.27;;;;;;;10.22;100.00;95021.16;5037289;28;20684;-67
2024/02/22 07:10:36;;;;;;;2.70;1.50;;;;;;;10.22;100.00;95007.19;5036952;28;20920;-67
2024/02/22 07:13:02;;;;;;;2.20;1.57;;;;;;;10.17;100.00;95010.44;5036283;28;20224;-68
2024/02/22 07:15:29;;;;;;;2.10;1.20;;;;;;;10.22;100.00;95013.28;5036707;28;20224;-68
2024/02/22 07:17:56;;;;;;;3.40;1.13;;;;;;;10.95;100.00;94992.59;5037636;28;20209;-69
2024/02/22 07:20:23;;;;;;;1.43;0.90;;;;;;;10.60;100.00;94999.22;5036455;28;20345;-68
2024/02/22 07:22:52;;;;;;;1.37;1.00;;;;;;;10.63;100.00;94996.16;5035791;28;20231;-68
2024/02/22 07:25:20;;;;;;;1.23;1.00;;;;;;;10.29;100.00;94993.00;5037182;28;20207;-66
2024/02/22 07:27:50;;;;;;;1.73;1.03;;;;;;;10.12;100.00;94997.06;5036848;28;20205;-67
2024/02/22 07:30:17;;;;;;;1.87;1.00;;;;;;;9.96;100.00;94997.47;5037158;28;20211;-68
2024/02/22 07:32:43;;;;;;;1.37;1.27;;;;;;;10.39;100.00;94985.50;5035709;28;20236;-68
2024/02/22 07:35:13;;;;;;;1.37;0.90;;;;;;;10.49;100.00;94983.25;5036360;28;20229;-68
2024/02/22 07:37:41;;;;;;;1.77;1.10;;;;;;;10.23;100.00;94985.91;5036172;28;20227;-68
2024/02/22 07:40:09;;;;;;;1.33;0.90;;;;;;;10.37;100.00;94979.59;5036924;28;20217;-68
2024/02/22 07:42:36;;;;;;;1.23;0.87;;;;;;;10.29;100.00;94979.84;5035491;28;20593;-68
2024/02/22 07:45:04;;;;;;;1.30;0.87;;;;;;;10.07;100.00;94978.44;5036257;28;20351;-68
2024/02/22 07:47:30;;;;;;;3.70;1.20;;;;;;;10.23;100.00;94985.91;5035884;28;20219;-68
2024/02/22 07:49:57;;;;;;;0.70;0.70;;;;;;;10.28;100.00;94983.47;5035772;28;20201;-69
2024/02/22 07:52:25;;;;;;;3.53;1.10;;;;;;;10.51;100.00;94979.41;5035737;28;20221;-67
2024/02/22 07:54:51;;;;;;;1.40;0.83;;;;;;;10.25;100.00;94972.56;5035866;28;20232;-69
2024/02/22 07:57:18;;;;;;;1.37;0.93;;;;;;;10.19;100.00;94984.69;5036079;28;20201;-68
2024/02/22 07:59:44;;;;;;;1.37;0.87;;;;;;;10.20;100.00;94981.06;5036850;28;20213;-69
2024/02/22 08:02:11;;;;;;;3.27;1.23;;;;;;;10.32;100.00;94974.16;5035057;28;20304;-68
2024/02/22 08:04:37;;;;;;;1.63;0.90;;;;;;;10.19;100.00;94971.53;5036252;28;20747;-68
2024/02/22 08:07:04;;;;;;;1.20;0.80;;;;;;;10.19;100.00;94979.44;5034656;28;20581;-68
2024/02/22 08:09:32;;;;;;;1.70;1.00;;;;;;;10.36;100.00;94964.81;5036417;28;20292;-69
2024/02/22 08:11:59;;;;;;;4.53;1.40;;;;;;;10.35;100.00;94965.84;5033908;28;20253;-69
2024/02/22 08:14:25;;;;;;;2.00;1.00;;;;;;;10.11;100.00;94966.50;5035322;28;20229;-68
2024/02/22 08:16:52;;;;;;;1.73;1.10;;;;;;;10.18;100.00;94961.22;5035415;28;20202;-68
2024/02/22 08:19:19;;;;;;;3.43;1.03;;;;;;;10.02;100.00;94966.94;5035095;28;20201;-68
2024/02/22 08:21:45;;;;;;;1.90;1.00;;;;;;;10.47;100.00;94967.63;5033887;28;20713;-68
2024/02/22 08:24:12;;;;;;;2.00;1.30;;;;;;;10.51;100.00;94954.88;5034903;28;20259;-68
2024/02/22 08:26:39;;;;;;;4.63;1.50;;;;;;;10.72;100.00;94955.41;5034223;28;20250;-68
2024/02/22 08:29:06;;;;;;;1.40;0.77;;;;;;;10.70;100.00;94952.16;5034043;28;20208;-69
2024/02/22 08:31:32;;;;;;;1.33;0.87;;;;;;;10.38;100.00;94953.06;5035000;28;20224;-68
2024/02/22 08:33:59;;;;;;;0.93;0.80;;;;;;;10.45;100.00;94947.78;5035393;28;20253;-68
2024/02/22 08:36:25;;;;;;;1.43;0.80;;;;;;;10.39;100.00;94964.44;5034850;28;20224;-69
2024/02/22 08:38:52;;;;;;;0.90;0.70;;;;;;;10.48;100.00;94947.38;5035334;28;21117;-68
2024/02/22 08:41:18;;;;;;;1.40;0.90;;;;;;;10.37;100.00;94945.38;5035659;28;20563;-68
2024/02/22 08:43:46;;;;;;;2.77;1.27;;;;;;;10.47;100.00;94949.19;5034557;28;20205;-69
2024/02/22 08:46:13;;;;;;;1.50;0.90;;;;;;;10.46;100.00;94938.88;5035194;28;20209;-69
2024/02/22 08:48:39;;;;;;;2.13;1.10;;;;;;;10.52;100.00;94949.38;5034292;28;20220;-68
2024/02/22 08:51:06;;;;;;;1.87;1.00;;;;;;;10.30;100.00;94943.78;5034465;28;20216;-69
2024/02/22 08:53:32;;;;;;;1.67;1.07;;;;;;;10.45;100.00;94937.25;5034184;28;20216;-68
2024/02/22 08:55:59;;;;;;;1.60;0.80;;;;;;;10.62;100.00;94938.44;5034851;28;20225;-67
2024/02/22 08:58:25;;;;;;;2.03;1.00;;;;;;;10.43;100.00;94939.28;5033370;28;20209;-69
2024/02/22 09:00:53;;;;;;;1.83;1.00;;;;;;;10.67;100.00;94928.88;5034061;28;20197;-68
2024/02/22 09:03:19;;;;;;;1.37;0.90;;;;;;;10.59;100.00;94933.56;5035046;28;20561;-68
2024/02/22 09:05:46;;;;;;;3.37;0.80;;;;;;;10.44;100.00;94920.66;5035368;28;20231;-69
2024/02/22 09:08:12;;;;;;;1.30;0.83;;;;;;;10.27;100.00;94921.31;5034916;28;20210;-68
2024/02/22 09:10:39;;;;;;;1.63;1.00;;;;;;;10.42;100.00;94914.81;5035761;28;20207;-69
2024/02/22 09:13:05;;;;;;;1.47;0.80;;;;;;;10.66;100.00;94905.38;5033988;28;20232;-68
2024/02/22 09:15:31;;;;;;;3.03;1.00;;;;;;;10.87;100.00;94905.06;5035347;28;20216;-68
2024/02/22 09:17:59;;;;;;;4.93;2.70;;;;;;;10.83;100.00;94896.75;5034722;28;20699;-68
2024/02/22 09:20:27;;;;;;;1.43;0.80;;;;;;;10.77;100.00;94895.00;5037891;28;20197;-68
2024/02/22 09:22:53;;;;;;;3.27;1.70;;;;;;;10.94;100.00;94893.47;5037275;28;20335;-67
2024/02/22 09:25:20;;;;;;;2.27;0.90;;;;;;;10.87;100.00;94889.25;5039292;28;20209;-68
2024/02/22 09:27:46;;;;;;;2.03;1.23;;;;;;;10.93;100.00;94893.69;5037814;28;20198;-68
2024/02/22 09:30:14;;;;;;;4.43;1.83;;;;;;;11.07;100.00;94888.94;5038664;28;20212;-68
2024/02/22 09:32:41;;;;;;;2.83;1.20;;;;;;;11.06;100.00;94892.59;5038401;28;20275;-68
2024/02/22 09:35:09;;;;;;;2.23;1.20;;;;;;;11.07;100.00;94878.41;5039089;28;20609;-68
2024/02/22 09:37:35;;;;;;;4.00;1.23;;;;;;;10.88;100.00;94881.13;5038674;28;21253;-68
2024/02/22 09:40:02;;;;;;;2.17;1.23;;;;;;;10.82;100.00;94870.63;5038743;28;20201;-67
2024/02/22 09:42:28;;;;;;;3.77;1.27;;;;;;;11.20;100.00;94870.41;5038413;28;20645;-68
2024/02/22 09:44:56;;;;;;;1.97;1.13;;;;;;;11.43;100.00;94861.91;5038053;28;20198;-67
2024/02/22 09:47:22;;;;;;;3.17;2.23;;;;;;;11.21;100.00;94858.81;5038731;28;21059;-68
2024/02/22 09:49:49;;;;;;;12.23;5.23;;;;;;;10.91;100.00;94858.81;5038577;28;20292;-68
2024/02/22 09:52:19;;;;;;;1.40;1.13;;;;;;;11.36;100.00;94853.25;5037395;28;20244;-68
2024/02/22 09:54:45;;;;;;;2.13;1.10;;;;;;;11.37;100.00;94866.22;5037679;28;20212;-68
2024/02/22 09:57:12;;;;;;;5.03;1.53;;;;;;;11.18;100.00;94855.81;5038200;28;20851;-68
2024/02/22 09:59:45;;;;;;;3.13;1.40;;;;;;;11.23;100.00;94853.34;5036336;28;20206;-67
2024/02/22 10:02:13;;;;;;;1.97;1.30;;;;;;;11.03;100.00;94840.28;5034756;28;20217;-68
2024/02/22 10:04:50;;;;;;;2.77;1.20;;;;;;;11.49;100.00;94832.03;5036275;28;20198;-68
2024/02/22 10:07:23;;;;;;;3.90;1.10;;;;;;;11.50;100.00;94834.50;5036503;28;20201;-67
2024/02/22 10:09:49;;;;;;;2.63;1.30;;;;;;;11.18;100.00;94840.78;5035785;28;20201;-68
2024/02/22 10:12:23;;;;;;;2.73;1.30;;;;;;;11.59;100.00;94838.47;5035692;28;20230;-68
2024/02/22 10:14:49;;;;;;;2.63;1.17;;;;;;;11.17;100.00;94839.19;5036306;28;20239;-68
2024/02/22 10:17:20;;;;;;;3.27;1.50;;;;;;;11.46;100.00;94827.22;5034862;28;20202;-68
2024/02/22 10:19:55;;;;;;;2.90;1.57;;;;;;;11.49;100.00;94832.84;5037557;28;20197;-68
2024/02/22 10:22:24;;;;;;;2.10;0.93;;;;;;;11.13;100.00;94822.19;5038534;28;20224;-67
2024/02/22 10:24:52;;;;;;;3.00;1.70;;;;;;;11.33;100.00;94827.28;5037990;28;20204;-68
2024/02/22 10:27:19;;;;;;;1.50;1.10;;;;;;;11.25;100.00;94825.75;5037051;28;21421;-68
2024/02/22 10:29:46;;;;;;;3.43;1.47;;;;;;;11.27;100.00;94823.69;5037608;28;21070;-68
2024/02/22 10:32:17;;;;;;;5.10;1.67;;;;;;;11.47;100.00;94797.97;5037515;28;20627;-68
2024/02/22 10:34:43;;;;;;;3.20;1.20;;;;;;;11.46;100.00;94809.53;5037948;28;20202;-68
2024/02/22 10:37:11;;;;;;;2.47;1.47;;;;;;;11.70;100.00;94796.34;5038070;28;20201;-67
2024/02/22 10:39:41;;;;;;;4.67;1.40;;;;;;;11.86;100.00;94787.88;5037168;28;20209;-68
2024/02/22 10:42:10;;;;;;;2.67;1.30;;;;;;;11.69;100.00;94780.75;5036205;28;20229;-68
2024/02/22 10:44:36;;;;;;;1.40;0.87;;;;;;;11.47;100.00;94776.88;5037611;28;20201;-71
2024/02/22 10:47:05;;;;;;;1.10;0.80;;;;;;;11.83;100.00;94780.38;5036919;28;20213;-68
2024/02/22 10:49:32;;;;;;;2.03;1.20;;;;;;;12.22;100.00;94777.28;5037471;28;20202;-68
2024/02/22 10:52:00;;;;;;;2.10;1.10;;;;;;;12.55;100.00;94781.13;5036176;28;20236;-68
2024/02/22 10:54:32;;;;;;;1.50;1.10;;;;;;;12.19;100.00;94767.16;5037686;28;20235;-68
2024/02/22 10:57:02;;;;;;;1.07;0.70;;;;;;;12.40;100.00;94770.13;5037098;28;20217;-68
2024/02/22 10:59:30;;;;;;;3.10;1.50;;;;;;;12.49;100.00;94768.81;5037158;28;20655;-67
2024/02/22 11:01:58;;;;;;;1.67;0.80;;;;;;;12.52;100.00;94755.13;5036532;28;20216;-68
2024/02/22 11:04:24;;;;;;;2.47;1.33;;;;;;;12.55;100.00;94757.34;5037373;28;20344;-68
2024/02/22 11:06:51;;;;;;;0.70;0.70;;;;;;;12.28;100.00;94749.97;5036584;28;20217;-68
2024/02/22 11:09:18;;;;;;;2.23;1.10;;;;;;;12.47;100.00;94736.50;5036734;28;20201;-68
2024/02/22 11:11:48;;;;;;;1.13;0.77;;;;;;;12.49;100.00;94737.09;5036445;28;20236;-68
2024/02/22 11:14:26;;;;;;;2.97;1.10;;;;;;;12.94;100.00;94717.13;5037196;28;20204;-68
2024/02/22 11:16:52;;;;;;;1.33;0.90;;;;;;;12.43;100.00;94726.63;5036889;28;20217;-68
2024/02/22 11:19:24;;;;;;;2.30;0.97;;;;;;;12.81;100.00;94710.19;5036615;28;20205;-68
2024/02/22 11:21:51;;;;;;;1.67;0.80;;;;;;;12.63;100.00;94714.75;5036259;28;20225;-68
2024/02/22 11:24:22;;;;;;;4.87;1.60;;;;;;;12.89;100.00;94699.31;5035971;28;20197;-68
2024/02/22 11:26:49;;;;;;;0.53;0.50;;;;;;;12.76;100.00;94696.84;5037518;28;20201;-68
2024/02/22 11:29:26;;;;;;;2.07;1.10;;;;;;;13.01;100.00;94704.63;5035854;28;20213;-68